Time;durP1;ratioP1;P1;durP2;ratioP2;P2;SDS_P1;SDS_P2;PMS_P1;PMS_P2;Temp;Humidity;BMP_temperature;BMP_pressure;BME280_temperature;BME280_humidity;BME280_pressure;Samples;Min_cycle;Max_cycle;Signal;HPM_P1;HPM_P2
2022/12/03 13:57:04;;;;;;;10.07;4.40;;;;;;;25.22;73.87;95625.91;5141237;22;20571;-63
2022/12/03 13:59:30;;;;;;;9.93;4.20;;;;;;;25.11;74.56;95634.28;5128933;28;20228;-64
2022/12/03 14:01:55;;;;;;;9.20;3.30;;;;;;;25.04;75.81;95595.22;5135199;22;20265;-62
2022/12/03 14:04:20;;;;;;;5.63;3.92;;;;;;;25.02;75.46;95596.41;5106966;28;20284;-65
2022/12/03 14:06:46;;;;;;;5.53;2.83;;;;;;;25.01;74.98;95592.22;5108302;28;20191;-65
2022/12/03 14:09:11;;;;;;;9.18;3.42;;;;;;;24.98;74.80;95602.03;5108084;28;20756;-65
2022/12/03 14:14:21;;;;;;;5.38;3.28;;;;;;;24.88;76.20;95559.94;5116884;22;20225;-62
2022/12/03 14:16:46;;;;;;;4.85;3.20;;;;;;;24.91;75.41;95569.94;5097628;22;20219;-66
2022/12/03 14:19:12;;;;;;;5.70;3.65;;;;;;;24.92;76.37;95561.16;5107723;28;20199;-64
2022/12/03 14:21:37;;;;;;;5.28;3.65;;;;;;;24.77;78.37;95482.47;5126886;22;20215;-63
2022/12/03 14:24:03;;;;;;;4.97;3.67;;;;;;;24.98;75.70;95564.78;5128382;28;20210;-64
2022/12/03 14:26:28;;;;;;;5.88;3.90;;;;;;;25.08;75.40;95572.19;5128344;28;20187;-65
2022/12/03 14:28:54;;;;;;;5.75;3.30;;;;;;;25.04;75.51;95563.19;5128327;28;20645;-65
2022/12/03 14:31:19;;;;;;;10.73;3.70;;;;;;;25.00;75.30;95568.00;5128284;28;20182;-65
2022/12/03 14:33:45;;;;;;;4.40;3.47;;;;;;;25.01;75.81;95566.19;5128064;28;20266;-66
2022/12/03 14:36:10;;;;;;;5.35;3.33;;;;;;;25.06;75.47;95575.00;5127678;28;20644;-65
2022/12/03 14:38:35;;;;;;;5.70;4.10;;;;;;;25.09;75.02;95566.78;5127954;28;20634;-64
2022/12/03 14:41:01;;;;;;;3.95;3.55;;;;;;;25.11;75.00;95577.03;5128278;28;20214;-64
2022/12/03 14:43:26;;;;;;;4.53;3.60;;;;;;;25.16;74.61;95582.44;5128185;28;20280;-64
2022/12/03 14:45:51;;;;;;;5.25;3.63;;;;;;;25.14;74.51;95580.03;5128279;28;20532;-64
2022/12/03 14:48:17;;;;;;;5.47;4.13;;;;;;;25.19;74.63;95585.44;5109791;28;20262;-64
2022/12/03 14:50:42;;;;;;;6.35;3.63;;;;;;;25.21;74.55;95585.25;5128002;28;20207;-63
2022/12/03 14:53:08;;;;;;;5.80;3.75;;;;;;;25.23;75.89;95549.44;5128000;28;20556;-64
2022/12/03 14:55:33;;;;;;;4.55;3.95;;;;;;;24.49;75.02;95460.94;5119811;22;20230;-63
2022/12/03 14:57:59;;;;;;;5.68;3.25;;;;;;;25.22;74.20;95603.28;5107426;28;20184;-65
2022/12/03 15:00:24;;;;;;;6.85;5.00;;;;;;;25.13;68.91;95721.59;5107424;28;20227;-65
2022/12/03 15:02:49;;;;;;;5.15;4.05;;;;;;;25.08;73.35;95609.44;5089106;28;20241;-66
2022/12/03 15:05:15;;;;;;;8.10;3.50;;;;;;;25.10;72.78;95611.84;5107240;28;20215;-70
2022/12/03 15:07:41;;;;;;;7.90;3.97;;;;;;;25.18;72.73;95627.28;5096229;28;20718;-65
2022/12/03 15:10:08;;;;;;;6.90;3.75;;;;;;;24.94;72.47;95592.19;5149048;22;20223;-66
2022/12/03 15:12:33;;;;;;;7.07;3.95;;;;;;;24.46;72.17;95512.53;5187086;22;20231;-67
2022/12/03 15:14:59;;;;;;;8.00;3.45;;;;;;;25.21;72.61;95622.50;5178876;22;20239;-67
2022/12/03 21:04:22;;;;;;;26.07;7.73;;;;;;;15.40;71.26;95597.19;5144214;27;20446;-56
2022/12/03 21:06:47;;;;;;;10.10;7.60;;;;;;;14.50;69.21;95624.69;5127376;28;20398;-59
2022/12/03 21:09:13;;;;;;;8.52;6.68;;;;;;;12.74;76.53;95450.34;5127111;28;20203;-59
2022/12/03 21:11:41;;;;;;;10.90;7.40;;;;;;;11.40;82.93;95317.41;5128454;28;20683;-59
2022/12/03 21:14:07;;;;;;;11.43;7.80;;;;;;;10.36;89.30;95245.75;5128613;27;20238;-59
2022/12/03 21:16:38;;;;;;;12.73;8.90;;;;;;;9.52;95.64;95301.78;5128473;28;20194;-58
2022/12/03 21:19:04;;;;;;;12.50;8.10;;;;;;;8.86;100.00;95364.72;5128607;27;20691;-55
2022/12/03 21:21:29;;;;;;;15.33;9.30;;;;;;;8.46;100.00;95434.97;5128482;28;20275;-54
2022/12/03 21:23:56;;;;;;;13.80;8.60;;;;;;;8.05;100.00;95424.06;5126745;27;20211;-55
2022/12/03 21:26:22;;;;;;;16.80;9.50;;;;;;;8.08;100.00;95412.00;5128396;28;20266;-57
2022/12/03 21:28:51;;;;;;;12.73;9.00;;;;;;;8.06;100.00;95403.69;5128147;27;20248;-54
2022/12/03 21:31:20;;;;;;;15.37;8.83;;;;;;;7.91;100.00;95402.13;5128166;28;20216;-55
2022/12/03 21:33:45;;;;;;;14.00;8.70;;;;;;;7.84;100.00;95393.28;5128388;27;20420;-56
2022/12/03 21:36:13;;;;;;;16.20;9.47;;;;;;;7.88;100.00;95399.00;5128050;28;20186;-54
2022/12/03 21:38:40;;;;;;;15.47;9.33;;;;;;;7.60;100.00;95398.16;5127988;28;20196;-56
2022/12/03 21:41:06;;;;;;;15.03;8.93;;;;;;;7.59;100.00;95393.97;5127800;27;20743;-55
2022/12/03 21:43:32;;;;;;;13.13;8.33;;;;;;;7.55;100.00;95402.66;5109638;28;20718;-54
2022/12/03 21:45:59;;;;;;;12.10;7.97;;;;;;;7.54;100.00;95400.22;5128113;27;20305;-53
2022/12/03 21:48:24;;;;;;;12.40;8.27;;;;;;;7.27;100.00;95376.63;5127828;28;20225;-54
2022/12/03 21:51:02;;;;;;;14.50;8.17;;;;;;;7.37;100.00;95385.28;5127791;27;20215;-54
2022/12/03 21:53:29;;;;;;;13.17;7.97;;;;;;;7.28;100.00;95385.81;5128358;28;20213;-54
2022/12/03 21:55:55;;;;;;;14.17;7.97;;;;;;;7.23;100.00;95385.31;5127928;27;20214;-55
2022/12/03 21:58:20;;;;;;;15.60;8.20;;;;;;;7.24;100.00;95390.25;5127476;28;20203;-55
2022/12/03 22:00:46;;;;;;;14.97;7.83;;;;;;;7.22;100.00;95391.25;5127387;27;20289;-54
2022/12/03 22:03:11;;;;;;;14.70;7.80;;;;;;;7.28;100.00;95395.94;5127809;28;20214;-52
2022/12/03 22:05:37;;;;;;;15.50;8.23;;;;;;;7.22;100.00;95392.06;5099127;22;20244;-54
2022/12/03 22:08:03;;;;;;;14.33;7.97;;;;;;;7.19;100.00;95383.88;5086844;28;20193;-54
2022/12/03 22:10:29;;;;;;;15.43;8.63;;;;;;;7.14;100.00;95388.38;5086663;28;20211;-54
2022/12/03 22:12:54;;;;;;;36.83;18.27;;;;;;;8.49;100.00;95376.47;5085861;28;20500;-54
2022/12/03 22:15:20;;;;;;;48.10;21.40;;;;;;;9.61;100.00;95379.84;5074494;28;20216;-53
2022/12/03 22:17:46;;;;;;;18.23;11.90;;;;;;;10.66;100.00;95375.69;5055067;28;20578;-56
2022/12/03 22:20:11;;;;;;;14.50;8.83;;;;;;;10.78;100.00;95408.66;5073082;28;20216;-53
2022/12/03 22:22:37;;;;;;;11.80;7.23;;;;;;;10.33;100.00;95480.59;5073096;28;20209;-53
2022/12/03 22:25:02;;;;;;;11.27;7.20;;;;;;;10.07;100.00;95479.84;5073375;28;20208;-53
2022/12/03 22:27:28;;;;;;;11.47;6.93;;;;;;;10.06;100.00;95346.13;5073152;28;20181;-54
2022/12/03 22:29:53;;;;;;;8.80;6.40;;;;;;;10.01;100.00;95500.59;5073232;28;20270;-53
2022/12/03 22:32:19;;;;;;;9.80;5.97;;;;;;;9.35;100.00;95458.66;5072988;28;20212;-53
2022/12/03 22:34:44;;;;;;;10.13;6.63;;;;;;;8.75;100.00;95426.28;5072985;28;20721;-53
2022/12/03 22:37:10;;;;;;;11.07;6.37;;;;;;;8.52;100.00;95394.03;5072992;28;20650;-54
2022/12/03 22:39:35;;;;;;;11.40;6.87;;;;;;;8.16;100.00;95363.44;5073018;28;20296;-53
2022/12/03 22:42:00;;;;;;;11.07;6.17;;;;;;;8.06;100.00;95372.53;5072539;28;20196;-53
2022/12/03 22:44:26;;;;;;;9.83;6.53;;;;;;;8.14;100.00;95378.69;5073005;28;20632;-53
2022/12/03 22:46:51;;;;;;;9.00;6.23;;;;;;;7.99;100.00;95376.34;5072637;28;20680;-54
2022/12/03 22:49:17;;;;;;;11.13;6.70;;;;;;;7.84;100.00;95360.38;5072590;28;20220;-54
2022/12/03 22:51:46;;;;;;;12.37;6.07;;;;;;;7.72;100.00;95347.69;5054502;28;20659;-54
2022/12/03 22:54:11;;;;;;;9.90;5.80;;;;;;;7.70;100.00;95360.44;5072593;28;20783;-53
2022/12/03 22:56:37;;;;;;;10.87;6.40;;;;;;;7.63;100.00;95356.69;5072529;28;20282;-54
2022/12/03 22:59:03;;;;;;;10.23;6.00;;;;;;;7.52;100.00;95352.28;5072581;28;20230;-54
2022/12/03 23:01:31;;;;;;;11.13;6.40;;;;;;;7.55;100.00;95346.22;5072593;28;20342;-54
2022/12/03 23:03:58;;;;;;;10.67;6.40;;;;;;;7.48;100.00;95345.78;5072148;28;20252;-54
2022/12/03 23:06:24;;;;;;;8.60;5.90;;;;;;;7.44;100.00;95346.88;5072463;28;20265;-53
2022/12/03 23:08:50;;;;;;;10.23;5.97;;;;;;;7.38;100.00;95347.25;5072592;28;20226;-53
2022/12/03 23:11:16;;;;;;;11.37;6.57;;;;;;;7.44;100.00;95357.00;5072368;28;20185;-54
2022/12/03 23:13:42;;;;;;;9.37;5.77;;;;;;;7.34;100.00;95345.81;5072399;28;20618;-52
2022/12/03 23:16:14;;;;;;;9.90;6.30;;;;;;;7.40;100.00;95353.03;5072360;28;20212;-54
2022/12/03 23:18:39;;;;;;;8.87;6.13;;;;;;;7.39;100.00;95360.72;5072281;28;20204;-55
2022/12/03 23:21:05;;;;;;;10.00;5.77;;;;;;;7.22;100.00;95338.97;5072245;28;20636;-54
2022/12/03 23:23:30;;;;;;;11.77;5.43;;;;;;;7.36;100.00;95344.00;5072268;28;20585;-53
2022/12/03 23:26:04;;;;;;;7.23;5.43;;;;;;;7.45;100.00;95351.00;5070852;28;20318;-54
2022/12/03 23:28:32;;;;;;;9.10;5.53;;;;;;;7.40;100.00;95352.22;5072275;28;20284;-53
2022/12/03 23:30:57;;;;;;;10.07;5.30;;;;;;;7.36;100.00;95344.00;5071892;28;20755;-54
2022/12/03 23:33:23;;;;;;;8.53;5.43;;;;;;;7.34;100.00;95350.88;5072093;28;20223;-54
2022/12/03 23:35:49;;;;;;;8.23;5.13;;;;;;;7.26;100.00;95349.72;5071928;28;20258;-54
2022/12/03 23:38:14;;;;;;;7.13;4.83;;;;;;;7.33;100.00;95354.28;5072032;28;20192;-54
2022/12/03 23:40:40;;;;;;;8.17;5.20;;;;;;;7.09;100.00;95337.28;5071636;28;20244;-53
2022/12/03 23:43:06;;;;;;;7.90;5.27;;;;;;;7.09;100.00;95338.06;5071593;28;20220;-55
2022/12/03 23:45:32;;;;;;;6.90;4.87;;;;;;;7.21;100.00;95349.19;5071754;28;20785;-56
2022/12/03 23:47:58;;;;;;;7.30;4.73;;;;;;;7.24;100.00;95354.03;5053831;28;20185;-56
2022/12/03 23:50:24;;;;;;;8.30;4.93;;;;;;;7.09;100.00;95347.41;5071761;28;20288;-53
2022/12/03 23:52:49;;;;;;;8.60;5.20;;;;;;;7.05;100.00;95351.81;5071795;28;20189;-56
2022/12/03 23:55:15;;;;;;;7.43;5.10;;;;;;;7.10;100.00;95354.88;5053518;28;20286;-53
2022/12/03 23:57:40;;;;;;;8.77;4.83;;;;;;;7.03;100.00;95346.03;5071556;28;20181;-53
